sensor_id;sensor_type;location;lat;lon;timestamp;temperature;humidity
5508;DHT22;2776;51.046;6.772;2023-07-09T00:00:44;22.60;99.90
5508;DHT22;2776;51.046;6.772;2023-07-09T00:03:45;22.60;99.90
5508;DHT22;2776;51.046;6.772;2023-07-09T00:06:25;22.50;99.90
5508;DHT22;2776;51.046;6.772;2023-07-09T00:09:14;22.50;99.90
5508;DHT22;2776;51.046;6.772;2023-07-09T00:11:49;22.40;99.90
5508;DHT22;2776;51.046;6.772;2023-07-09T00:14:34;22.40;99.90
5508;DHT22;2776;51.046;6.772;2023-07-09T00:17:21;22.30;99.90
5508;DHT22;2776;51.046;6.772;2023-07-09T00:20:16;22.30;99.90
5508;DHT22;2776;51.046;6.772;2023-07-09T00:23:01;22.30;99.90
5508;DHT22;2776;51.046;6.772;2023-07-09T00:26:01;22.20;99.90
5508;DHT22;2776;51.046;6.772;2023-07-09T00:28:39;22.10;99.90
5508;DHT22;2776;51.046;6.772;2023-07-09T00:31:37;22.00;99.90
5508;DHT22;2776;51.046;6.772;2023-07-09T00:34:24;22.00;99.90
5508;DHT22;2776;51.046;6.772;2023-07-09T00:37:14;22.00;99.90
5508;DHT22;2776;51.046;6.772;2023-07-09T00:39:56;22.00;99.90
5508;DHT22;2776;51.046;6.772;2023-07-09T00:42:42;22.00;99.90
5508;DHT22;2776;51.046;6.772;2023-07-09T00:45:33;22.00;99.90
5508;DHT22;2776;51.046;6.772;2023-07-09T00:48:28;21.80;99.90
5508;DHT22;2776;51.046;6.772;2023-07-09T00:51:16;21.80;99.90
5508;DHT22;2776;51.046;6.772;2023-07-09T00:54:03;21.80;99.90
5508;DHT22;2776;51.046;6.772;2023-07-09T00:56:49;21.80;99.90
5508;DHT22;2776;51.046;6.772;2023-07-09T00:59:37;21.70;99.90
5508;DHT22;2776;51.046;6.772;2023-07-09T01:02:29;21.70;99.90
5508;DHT22;2776;51.046;6.772;2023-07-09T01:05:08;21.70;99.90
5508;DHT22;2776;51.046;6.772;2023-07-09T01:07:52;21.60;99.90
5508;DHT22;2776;51.046;6.772;2023-07-09T01:10:31;21.60;99.90
5508;DHT22;2776;51.046;6.772;2023-07-09T01:13:16;21.60;99.90
5508;DHT22;2776;51.046;6.772;2023-07-09T01:15:59;21.60;99.90
5508;DHT22;2776;51.046;6.772;2023-07-09T01:18:51;21.70;99.90
5508;DHT22;2776;51.046;6.772;2023-07-09T01:21:34;21.70;99.90
5508;DHT22;2776;51.046;6.772;2023-07-09T01:27:03;21.50;99.90
5508;DHT22;2776;51.046;6.772;2023-07-09T01:29:49;21.40;99.90
5508;DHT22;2776;51.046;6.772;2023-07-09T01:32:43;21.30;99.90
5508;DHT22;2776;51.046;6.772;2023-07-09T01:35:34;21.20;99.90
5508;DHT22;2776;51.046;6.772;2023-07-09T01:38:23;21.00;99.90
5508;DHT22;2776;51.046;6.772;2023-07-09T01:41:04;21.00;99.90
5508;DHT22;2776;51.046;6.772;2023-07-09T01:43:49;21.00;99.90
5508;DHT22;2776;51.046;6.772;2023-07-09T01:46:25;21.00;99.90
5508;DHT22;2776;51.046;6.772;2023-07-09T01:49:07;20.90;99.90
5508;DHT22;2776;51.046;6.772;2023-07-09T01:51:54;20.80;99.90
5508;DHT22;2776;51.046;6.772;2023-07-09T01:54:51;20.80;99.90
5508;DHT22;2776;51.046;6.772;2023-07-09T01:57:23;20.80;99.90
5508;DHT22;2776;51.046;6.772;2023-07-09T02:00:12;20.80;99.90
5508;DHT22;2776;51.046;6.772;2023-07-09T02:02:59;20.80;99.90
5508;DHT22;2776;51.046;6.772;2023-07-09T02:05:47;20.80;99.90
5508;DHT22;2776;51.046;6.772;2023-07-09T02:08:24;20.80;99.90
5508;DHT22;2776;51.046;6.772;2023-07-09T02:10:59;20.70;99.90
5508;DHT22;2776;51.046;6.772;2023-07-09T02:13:43;20.70;99.90
5508;DHT22;2776;51.046;6.772;2023-07-09T02:16:36;20.70;99.90
5508;DHT22;2776;51.046;6.772;2023-07-09T02:19:13;20.70;99.90
5508;DHT22;2776;51.046;6.772;2023-07-09T02:21:57;20.60;99.90
5508;DHT22;2776;51.046;6.772;2023-07-09T02:24:35;20.60;99.90
5508;DHT22;2776;51.046;6.772;2023-07-09T02:27:19;20.50;99.90
5508;DHT22;2776;51.046;6.772;2023-07-09T02:30:03;20.60;99.90
5508;DHT22;2776;51.046;6.772;2023-07-09T02:33:15;20.70;99.90
5508;DHT22;2776;51.046;6.772;2023-07-09T02:35:38;20.70;99.90
5508;DHT22;2776;51.046;6.772;2023-07-09T02:38:15;20.70;99.90
5508;DHT22;2776;51.046;6.772;2023-07-09T02:41:01;20.60;99.90
5508;DHT22;2776;51.046;6.772;2023-07-09T02:43:47;20.60;99.90
5508;DHT22;2776;51.046;6.772;2023-07-09T02:46:21;20.60;99.90
5508;DHT22;2776;51.046;6.772;2023-07-09T02:49:11;20.50;99.90
5508;DHT22;2776;51.046;6.772;2023-07-09T02:51:52;20.50;99.90
5508;DHT22;2776;51.046;6.772;2023-07-09T02:54:33;20.50;99.90
5508;DHT22;2776;51.046;6.772;2023-07-09T02:57:22;20.50;99.90
5508;DHT22;2776;51.046;6.772;2023-07-09T03:00:07;20.60;99.90
5508;DHT22;2776;51.046;6.772;2023-07-09T03:02:41;20.60;99.90
5508;DHT22;2776;51.046;6.772;2023-07-09T03:05:21;20.50;99.90
5508;DHT22;2776;51.046;6.772;2023-07-09T03:08:05;20.40;99.90
5508;DHT22;2776;51.046;6.772;2023-07-09T03:10:44;20.40;99.90
5508;DHT22;2776;51.046;6.772;2023-07-09T03:13:25;20.40;99.90
5508;DHT22;2776;51.046;6.772;2023-07-09T03:16:06;20.40;99.90
5508;DHT22;2776;51.046;6.772;2023-07-09T03:18:44;20.30;99.90
5508;DHT22;2776;51.046;6.772;2023-07-09T03:21:27;20.20;99.90
5508;DHT22;2776;51.046;6.772;2023-07-09T03:24:09;20.20;99.90
5508;DHT22;2776;51.046;6.772;2023-07-09T03:26:48;20.20;99.90
5508;DHT22;2776;51.046;6.772;2023-07-09T03:29:29;20.10;99.90
5508;DHT22;2776;51.046;6.772;2023-07-09T03:32:03;20.20;99.90
5508;DHT22;2776;51.046;6.772;2023-07-09T03:34:34;20.30;99.90
5508;DHT22;2776;51.046;6.772;2023-07-09T03:37:10;20.20;99.90
5508;DHT22;2776;51.046;6.772;2023-07-09T03:39:45;20.20;99.90
5508;DHT22;2776;51.046;6.772;2023-07-09T03:42:28;20.20;99.90
5508;DHT22;2776;51.046;6.772;2023-07-09T03:45:02;20.30;99.90
5508;DHT22;2776;51.046;6.772;2023-07-09T03:47:35;20.40;99.90
5508;DHT22;2776;51.046;6.772;2023-07-09T03:50:14;20.50;99.90
5508;DHT22;2776;51.046;6.772;2023-07-09T03:52:59;20.60;99.90
5508;DHT22;2776;51.046;6.772;2023-07-09T03:55:51;20.70;99.90
5508;DHT22;2776;51.046;6.772;2023-07-09T03:58:40;20.80;99.90
5508;DHT22;2776;51.046;6.772;2023-07-09T04:01:22;20.80;99.90
5508;DHT22;2776;51.046;6.772;2023-07-09T04:04:11;21.00;99.90
5508;DHT22;2776;51.046;6.772;2023-07-09T04:07:21;21.00;99.90
5508;DHT22;2776;51.046;6.772;2023-07-09T04:10:17;21.10;99.90
5508;DHT22;2776;51.046;6.772;2023-07-09T04:13:06;21.10;99.90
5508;DHT22;2776;51.046;6.772;2023-07-09T04:15:54;21.10;99.90
5508;DHT22;2776;51.046;6.772;2023-07-09T04:18:33;21.20;99.90
5508;DHT22;2776;51.046;6.772;2023-07-09T04:21:17;21.20;99.90
5508;DHT22;2776;51.046;6.772;2023-07-09T04:23:58;21.20;99.90
5508;DHT22;2776;51.046;6.772;2023-07-09T04:26:37;21.30;99.90
5508;DHT22;2776;51.046;6.772;2023-07-09T04:29:11;21.40;99.90
5508;DHT22;2776;51.046;6.772;2023-07-09T04:31:41;21.40;99.90
5508;DHT22;2776;51.046;6.772;2023-07-09T04:34:11;21.40;99.90
5508;DHT22;2776;51.046;6.772;2023-07-09T04:36:44;21.50;99.90
5508;DHT22;2776;51.046;6.772;2023-07-09T04:39:13;21.50;99.90
5508;DHT22;2776;51.046;6.772;2023-07-09T04:41:43;21.60;99.90
5508;DHT22;2776;51.046;6.772;2023-07-09T04:44:16;21.60;99.90
5508;DHT22;2776;51.046;6.772;2023-07-09T04:46:48;21.70;99.90
5508;DHT22;2776;51.046;6.772;2023-07-09T04:49:20;21.80;99.90
5508;DHT22;2776;51.046;6.772;2023-07-09T04:51:56;21.90;99.90
5508;DHT22;2776;51.046;6.772;2023-07-09T04:54:32;21.90;99.90
5508;DHT22;2776;51.046;6.772;2023-07-09T04:57:08;22.00;99.90
5508;DHT22;2776;51.046;6.772;2023-07-09T04:59:40;22.20;99.90
5508;DHT22;2776;51.046;6.772;2023-07-09T05:02:12;22.20;99.90
5508;DHT22;2776;51.046;6.772;2023-07-09T05:04:44;22.40;99.90
5508;DHT22;2776;51.046;6.772;2023-07-09T05:07:16;22.50;99.90
5508;DHT22;2776;51.046;6.772;2023-07-09T05:09:52;22.60;99.90
5508;DHT22;2776;51.046;6.772;2023-07-09T05:12:28;22.70;99.90
5508;DHT22;2776;51.046;6.772;2023-07-09T05:15:02;22.70;99.90
5508;DHT22;2776;51.046;6.772;2023-07-09T05:17:39;22.90;99.90
5508;DHT22;2776;51.046;6.772;2023-07-09T05:20:17;22.90;99.90
5508;DHT22;2776;51.046;6.772;2023-07-09T05:22:55;23.10;99.90
5508;DHT22;2776;51.046;6.772;2023-07-09T05:25:24;23.20;99.90
5508;DHT22;2776;51.046;6.772;2023-07-09T05:27:59;23.40;99.90
5508;DHT22;2776;51.046;6.772;2023-07-09T05:30:27;23.80;99.90
5508;DHT22;2776;51.046;6.772;2023-07-09T05:33:00;24.50;99.90
5508;DHT22;2776;51.046;6.772;2023-07-09T05:35:34;25.10;99.90
5508;DHT22;2776;51.046;6.772;2023-07-09T05:38:13;25.60;99.90
5508;DHT22;2776;51.046;6.772;2023-07-09T05:40:43;26.00;99.90
5508;DHT22;2776;51.046;6.772;2023-07-09T05:43:17;26.10;99.90
5508;DHT22;2776;51.046;6.772;2023-07-09T05:45:46;26.50;99.90
5508;DHT22;2776;51.046;6.772;2023-07-09T05:48:20;26.90;99.90
5508;DHT22;2776;51.046;6.772;2023-07-09T05:50:52;27.40;99.90
5508;DHT22;2776;51.046;6.772;2023-07-09T05:53:26;27.70;99.90
5508;DHT22;2776;51.046;6.772;2023-07-09T05:56:01;28.00;99.90
5508;DHT22;2776;51.046;6.772;2023-07-09T05:58:32;28.20;99.90
5508;DHT22;2776;51.046;6.772;2023-07-09T06:01:04;28.20;99.90
5508;DHT22;2776;51.046;6.772;2023-07-09T06:03:34;28.60;99.90
5508;DHT22;2776;51.046;6.772;2023-07-09T06:06:06;28.60;99.90
5508;DHT22;2776;51.046;6.772;2023-07-09T06:08:38;28.30;99.90
5508;DHT22;2776;51.046;6.772;2023-07-09T06:11:14;28.40;99.90
5508;DHT22;2776;51.046;6.772;2023-07-09T06:13:47;28.30;99.90
5508;DHT22;2776;51.046;6.772;2023-07-09T06:16:21;28.10;99.90
5508;DHT22;2776;51.046;6.772;2023-07-09T06:18:58;27.90;99.90
5508;DHT22;2776;51.046;6.772;2023-07-09T06:21:33;27.60;99.90
5508;DHT22;2776;51.046;6.772;2023-07-09T06:24:05;27.40;99.90
5508;DHT22;2776;51.046;6.772;2023-07-09T06:26:36;27.20;99.90
5508;DHT22;2776;51.046;6.772;2023-07-09T06:29:06;27.10;99.90
5508;DHT22;2776;51.046;6.772;2023-07-09T06:31:38;27.10;99.90
5508;DHT22;2776;51.046;6.772;2023-07-09T06:34:09;27.20;99.90
5508;DHT22;2776;51.046;6.772;2023-07-09T06:36:39;27.20;99.90
5508;DHT22;2776;51.046;6.772;2023-07-09T06:39:08;27.20;99.90
5508;DHT22;2776;51.046;6.772;2023-07-09T06:41:37;27.10;99.90
5508;DHT22;2776;51.046;6.772;2023-07-09T06:44:10;27.20;99.90
5508;DHT22;2776;51.046;6.772;2023-07-09T06:46:41;27.20;99.90
5508;DHT22;2776;51.046;6.772;2023-07-09T06:49:13;27.20;99.90
5508;DHT22;2776;51.046;6.772;2023-07-09T06:51:42;27.40;99.90
5508;DHT22;2776;51.046;6.772;2023-07-09T06:54:16;27.20;99.90
5508;DHT22;2776;51.046;6.772;2023-07-09T06:56:51;27.30;99.90
5508;DHT22;2776;51.046;6.772;2023-07-09T06:59:27;27.20;99.90
5508;DHT22;2776;51.046;6.772;2023-07-09T07:02:08;27.40;99.90
5508;DHT22;2776;51.046;6.772;2023-07-09T07:04:51;27.60;99.90
5508;DHT22;2776;51.046;6.772;2023-07-09T07:07:25;27.60;99.90
5508;DHT22;2776;51.046;6.772;2023-07-09T07:10:04;27.70;99.90
5508;DHT22;2776;51.046;6.772;2023-07-09T07:12:43;27.80;99.90
5508;DHT22;2776;51.046;6.772;2023-07-09T07:15:19;28.00;99.90
5508;DHT22;2776;51.046;6.772;2023-07-09T07:17:52;28.10;99.90
5508;DHT22;2776;51.046;6.772;2023-07-09T07:20:28;28.40;99.90
5508;DHT22;2776;51.046;6.772;2023-07-09T07:23:00;28.80;99.90
5508;DHT22;2776;51.046;6.772;2023-07-09T07:25:36;29.30;99.90
5508;DHT22;2776;51.046;6.772;2023-07-09T07:28:18;29.80;97.40
5508;DHT22;2776;51.046;6.772;2023-07-09T07:31:12;30.20;96.40
5508;DHT22;2776;51.046;6.772;2023-07-09T07:33:49;30.80;95.50
5508;DHT22;2776;51.046;6.772;2023-07-09T07:36:31;30.60;92.40
5508;DHT22;2776;51.046;6.772;2023-07-09T07:39:14;30.40;94.20
5508;DHT22;2776;51.046;6.772;2023-07-09T07:41:52;30.10;93.90
5508;DHT22;2776;51.046;6.772;2023-07-09T07:44:32;29.90;92.00
5508;DHT22;2776;51.046;6.772;2023-07-09T07:47:12;29.80;94.40
5508;DHT22;2776;51.046;6.772;2023-07-09T07:49:45;29.70;93.20
5508;DHT22;2776;51.046;6.772;2023-07-09T07:52:25;29.70;95.00
5508;DHT22;2776;51.046;6.772;2023-07-09T07:54:56;29.70;96.30
5508;DHT22;2776;51.046;6.772;2023-07-09T07:57:27;29.80;94.90
5508;DHT22;2776;51.046;6.772;2023-07-09T07:59:58;29.90;96.60
5508;DHT22;2776;51.046;6.772;2023-07-09T08:02:45;29.90;93.70
5508;DHT22;2776;51.046;6.772;2023-07-09T08:05:27;29.90;93.60
5508;DHT22;2776;51.046;6.772;2023-07-09T08:08:01;30.00;92.60
5508;DHT22;2776;51.046;6.772;2023-07-09T08:10:41;29.90;92.70
5508;DHT22;2776;51.046;6.772;2023-07-09T08:13:21;30.00;92.40
5508;DHT22;2776;51.046;6.772;2023-07-09T08:15:55;30.10;93.20
5508;DHT22;2776;51.046;6.772;2023-07-09T08:18:27;30.10;93.10
5508;DHT22;2776;51.046;6.772;2023-07-09T08:21:03;30.40;92.10
5508;DHT22;2776;51.046;6.772;2023-07-09T08:23:37;30.50;92.10
5508;DHT22;2776;51.046;6.772;2023-07-09T08:26:11;30.50;90.10
5508;DHT22;2776;51.046;6.772;2023-07-09T08:28:57;30.80;90.50
5508;DHT22;2776;51.046;6.772;2023-07-09T08:31:35;30.60;85.50
5508;DHT22;2776;51.046;6.772;2023-07-09T08:34:07;30.60;88.40
5508;DHT22;2776;51.046;6.772;2023-07-09T08:36:56;30.70;87.20
5508;DHT22;2776;51.046;6.772;2023-07-09T08:39:42;30.80;87.80
5508;DHT22;2776;51.046;6.772;2023-07-09T08:42:45;30.80;85.20
5508;DHT22;2776;51.046;6.772;2023-07-09T08:45:42;30.80;86.30
5508;DHT22;2776;51.046;6.772;2023-07-09T08:48:31;30.70;83.20
5508;DHT22;2776;51.046;6.772;2023-07-09T08:51:15;30.60;82.40
5508;DHT22;2776;51.046;6.772;2023-07-09T08:54:02;30.80;82.20
5508;DHT22;2776;51.046;6.772;2023-07-09T08:56:35;31.00;81.20
5508;DHT22;2776;51.046;6.772;2023-07-09T08:59:20;31.00;82.70
5508;DHT22;2776;51.046;6.772;2023-07-09T09:02:00;31.20;83.60
5508;DHT22;2776;51.046;6.772;2023-07-09T09:04:53;31.30;83.70
5508;DHT22;2776;51.046;6.772;2023-07-09T09:07:45;31.40;79.10
5508;DHT22;2776;51.046;6.772;2023-07-09T09:10:33;31.60;78.50
5508;DHT22;2776;51.046;6.772;2023-07-09T09:13:16;31.60;77.40
5508;DHT22;2776;51.046;6.772;2023-07-09T09:16:01;31.60;75.90
5508;DHT22;2776;51.046;6.772;2023-07-09T09:18:43;31.70;76.80
5508;DHT22;2776;51.046;6.772;2023-07-09T09:21:21;31.80;74.20
5508;DHT22;2776;51.046;6.772;2023-07-09T09:24:16;32.00;71.70
5508;DHT22;2776;51.046;6.772;2023-07-09T09:27:00;32.20;74.30
5508;DHT22;2776;51.046;6.772;2023-07-09T09:29:40;32.40;72.00
5508;DHT22;2776;51.046;6.772;2023-07-09T09:32:29;32.40;69.80
5508;DHT22;2776;51.046;6.772;2023-07-09T09:35:12;32.50;68.20
5508;DHT22;2776;51.046;6.772;2023-07-09T09:37:55;32.70;69.60
5508;DHT22;2776;51.046;6.772;2023-07-09T09:40:35;33.00;69.30
5508;DHT22;2776;51.046;6.772;2023-07-09T09:43:18;33.00;65.10
5508;DHT22;2776;51.046;6.772;2023-07-09T09:45:56;32.90;68.50
5508;DHT22;2776;51.046;6.772;2023-07-09T09:48:34;32.90;67.50
5508;DHT22;2776;51.046;6.772;2023-07-09T09:51:16;32.90;67.40
5508;DHT22;2776;51.046;6.772;2023-07-09T09:54:01;32.90;69.60
5508;DHT22;2776;51.046;6.772;2023-07-09T09:56:41;32.90;66.40
5508;DHT22;2776;51.046;6.772;2023-07-09T09:59:20;32.80;67.50
5508;DHT22;2776;51.046;6.772;2023-07-09T10:02:12;33.00;68.10
5508;DHT22;2776;51.046;6.772;2023-07-09T10:04:50;33.00;65.70
5508;DHT22;2776;51.046;6.772;2023-07-09T10:07:34;33.00;63.30
5508;DHT22;2776;51.046;6.772;2023-07-09T10:10:13;33.00;66.30
5508;DHT22;2776;51.046;6.772;2023-07-09T10:12:51;33.10;65.60
5508;DHT22;2776;51.046;6.772;2023-07-09T10:15:38;33.20;63.40
5508;DHT22;2776;51.046;6.772;2023-07-09T10:18:24;33.30;67.70
5508;DHT22;2776;51.046;6.772;2023-07-09T10:21:08;33.30;63.00
5508;DHT22;2776;51.046;6.772;2023-07-09T10:23:47;33.30;65.20
5508;DHT22;2776;51.046;6.772;2023-07-09T10:26:29;33.30;60.10
5508;DHT22;2776;51.046;6.772;2023-07-09T10:29:18;33.40;65.00
5508;DHT22;2776;51.046;6.772;2023-07-09T10:31:58;33.40;62.20
5508;DHT22;2776;51.046;6.772;2023-07-09T10:34:34;33.50;63.50
5508;DHT22;2776;51.046;6.772;2023-07-09T10:37:42;33.60;59.60
5508;DHT22;2776;51.046;6.772;2023-07-09T10:40:37;33.70;59.30
5508;DHT22;2776;51.046;6.772;2023-07-09T10:43:20;33.80;60.00
5508;DHT22;2776;51.046;6.772;2023-07-09T10:45:56;33.70;60.10
5508;DHT22;2776;51.046;6.772;2023-07-09T10:48:35;33.90;60.40
5508;DHT22;2776;51.046;6.772;2023-07-09T10:51:20;34.00;59.10
5508;DHT22;2776;51.046;6.772;2023-07-09T10:54:00;34.10;58.00
5508;DHT22;2776;51.046;6.772;2023-07-09T10:56:36;34.10;57.50
5508;DHT22;2776;51.046;6.772;2023-07-09T10:59:21;34.20;56.10
5508;DHT22;2776;51.046;6.772;2023-07-09T11:02:12;34.20;55.80
5508;DHT22;2776;51.046;6.772;2023-07-09T11:04:56;34.30;58.00
5508;DHT22;2776;51.046;6.772;2023-07-09T11:07:40;34.50;56.50
5508;DHT22;2776;51.046;6.772;2023-07-09T11:10:29;34.40;54.70
5508;DHT22;2776;51.046;6.772;2023-07-09T11:13:21;34.50;57.20
5508;DHT22;2776;51.046;6.772;2023-07-09T11:16:11;34.50;54.30
5508;DHT22;2776;51.046;6.772;2023-07-09T11:18:55;34.60;55.30
5508;DHT22;2776;51.046;6.772;2023-07-09T11:21:32;34.70;55.20
5508;DHT22;2776;51.046;6.772;2023-07-09T11:24:30;34.90;54.80
5508;DHT22;2776;51.046;6.772;2023-07-09T11:27:01;34.90;53.60
5508;DHT22;2776;51.046;6.772;2023-07-09T11:29:34;34.90;53.00
5508;DHT22;2776;51.046;6.772;2023-07-09T11:32:28;34.90;52.30
5508;DHT22;2776;51.046;6.772;2023-07-09T11:35:20;35.10;52.40
5508;DHT22;2776;51.046;6.772;2023-07-09T11:38:06;35.10;51.40
5508;DHT22;2776;51.046;6.772;2023-07-09T11:40:46;35.10;52.30
5508;DHT22;2776;51.046;6.772;2023-07-09T11:43:46;35.20;51.40
5508;DHT22;2776;51.046;6.772;2023-07-09T11:46:26;35.20;51.10
5508;DHT22;2776;51.046;6.772;2023-07-09T11:48:59;35.30;51.10
5508;DHT22;2776;51.046;6.772;2023-07-09T11:51:42;35.30;50.60
5508;DHT22;2776;51.046;6.772;2023-07-09T11:54:22;35.40;51.50
5508;DHT22;2776;51.046;6.772;2023-07-09T11:57:00;35.50;48.80
5508;DHT22;2776;51.046;6.772;2023-07-09T11:59:39;35.60;47.20
5508;DHT22;2776;51.046;6.772;2023-07-09T12:02:24;35.60;46.40
5508;DHT22;2776;51.046;6.772;2023-07-09T12:05:04;35.60;45.00
5508;DHT22;2776;51.046;6.772;2023-07-09T12:07:49;35.80;45.60
5508;DHT22;2776;51.046;6.772;2023-07-09T12:10:28;35.80;45.90
5508;DHT22;2776;51.046;6.772;2023-07-09T12:13:00;35.80;45.70
5508;DHT22;2776;51.046;6.772;2023-07-09T12:15:38;35.90;45.80
5508;DHT22;2776;51.046;6.772;2023-07-09T12:18:20;35.90;45.10
5508;DHT22;2776;51.046;6.772;2023-07-09T12:21:12;35.90;44.30
5508;DHT22;2776;51.046;6.772;2023-07-09T12:23:46;35.90;43.50
5508;DHT22;2776;51.046;6.772;2023-07-09T12:26:23;36.00;44.30
5508;DHT22;2776;51.046;6.772;2023-07-09T12:29:19;36.10;46.20
5508;DHT22;2776;51.046;6.772;2023-07-09T12:32:09;36.40;44.60
5508;DHT22;2776;51.046;6.772;2023-07-09T12:34:42;36.60;44.90
5508;DHT22;2776;51.046;6.772;2023-07-09T12:37:22;36.70;42.90
5508;DHT22;2776;51.046;6.772;2023-07-09T12:40:11;36.70;39.30
5508;DHT22;2776;51.046;6.772;2023-07-09T12:42:44;36.70;38.70
5508;DHT22;2776;51.046;6.772;2023-07-09T12:45:24;36.70;37.80
5508;DHT22;2776;51.046;6.772;2023-07-09T12:48:04;36.70;38.30
5508;DHT22;2776;51.046;6.772;2023-07-09T12:50:54;36.30;36.50
5508;DHT22;2776;51.046;6.772;2023-07-09T12:53:41;36.20;37.50
5508;DHT22;2776;51.046;6.772;2023-07-09T12:56:27;36.10;38.10
5508;DHT22;2776;51.046;6.772;2023-07-09T12:59:13;36.10;37.70
5508;DHT22;2776;51.046;6.772;2023-07-09T13:01:55;36.10;38.10
5508;DHT22;2776;51.046;6.772;2023-07-09T13:04:44;36.20;39.00
5508;DHT22;2776;51.046;6.772;2023-07-09T13:07:42;36.20;39.50
5508;DHT22;2776;51.046;6.772;2023-07-09T13:10:26;36.00;39.00
5508;DHT22;2776;51.046;6.772;2023-07-09T13:13:16;35.80;37.40
5508;DHT22;2776;51.046;6.772;2023-07-09T13:15:55;35.60;38.80
5508;DHT22;2776;51.046;6.772;2023-07-09T13:18:36;35.50;38.40
5508;DHT22;2776;51.046;6.772;2023-07-09T13:21:27;35.30;38.50
5508;DHT22;2776;51.046;6.772;2023-07-09T13:24:19;35.10;38.70
5508;DHT22;2776;51.046;6.772;2023-07-09T13:27:07;34.80;39.70
5508;DHT22;2776;51.046;6.772;2023-07-09T13:29:49;34.60;40.00
5508;DHT22;2776;51.046;6.772;2023-07-09T13:32:39;34.40;40.50
5508;DHT22;2776;51.046;6.772;2023-07-09T13:35:19;34.30;41.90
5508;DHT22;2776;51.046;6.772;2023-07-09T13:38:16;34.20;43.10
5508;DHT22;2776;51.046;6.772;2023-07-09T13:41:08;34.10;43.50
5508;DHT22;2776;51.046;6.772;2023-07-09T13:43:51;34.00;44.90
5508;DHT22;2776;51.046;6.772;2023-07-09T13:46:36;33.30;52.30
5508;DHT22;2776;51.046;6.772;2023-07-09T13:49:16;32.30;55.30
5508;DHT22;2776;51.046;6.772;2023-07-09T13:52:09;31.40;65.00
5508;DHT22;2776;51.046;6.772;2023-07-09T13:55:10;30.50;77.80
5508;DHT22;2776;51.046;6.772;2023-07-09T13:57:58;29.60;90.00
5508;DHT22;2776;51.046;6.772;2023-07-09T14:00:37;29.10;88.20
5508;DHT22;2776;51.046;6.772;2023-07-09T14:03:20;28.70;93.10
5508;DHT22;2776;51.046;6.772;2023-07-09T14:06:14;28.60;95.10
5508;DHT22;2776;51.046;6.772;2023-07-09T14:08:53;28.50;98.30
5508;DHT22;2776;51.046;6.772;2023-07-09T14:14:51;28.30;99.90
5508;DHT22;2776;51.046;6.772;2023-07-09T14:17:35;28.20;99.90
5508;DHT22;2776;51.046;6.772;2023-07-09T14:20:18;28.10;99.90
5508;DHT22;2776;51.046;6.772;2023-07-09T14:23:01;27.90;99.90
5508;DHT22;2776;51.046;6.772;2023-07-09T14:25:47;27.70;99.90
5508;DHT22;2776;51.046;6.772;2023-07-09T14:28:33;27.60;99.90
5508;DHT22;2776;51.046;6.772;2023-07-09T14:31:24;27.20;99.90
5508;DHT22;2776;51.046;6.772;2023-07-09T14:34:17;26.60;99.90
5508;DHT22;2776;51.046;6.772;2023-07-09T14:37:03;26.10;99.90
5508;DHT22;2776;51.046;6.772;2023-07-09T14:39:34;25.00;99.90
5508;DHT22;2776;51.046;6.772;2023-07-09T14:42:20;24.50;99.90
5508;DHT22;2776;51.046;6.772;2023-07-09T14:45:20;23.90;99.90
5508;DHT22;2776;51.046;6.772;2023-07-09T14:48:04;23.60;99.90
5508;DHT22;2776;51.046;6.772;2023-07-09T14:51:00;23.40;99.90
5508;DHT22;2776;51.046;6.772;2023-07-09T14:53:34;23.10;99.90
5508;DHT22;2776;51.046;6.772;2023-07-09T14:56:06;22.70;99.90
5508;DHT22;2776;51.046;6.772;2023-07-09T14:58:46;22.30;99.90
5508;DHT22;2776;51.046;6.772;2023-07-09T15:01:24;21.90;99.90
5508;DHT22;2776;51.046;6.772;2023-07-09T15:04:22;21.80;99.90
5508;DHT22;2776;51.046;6.772;2023-07-09T15:07:04;21.80;99.90
5508;DHT22;2776;51.046;6.772;2023-07-09T15:09:54;21.50;99.90
5508;DHT22;2776;51.046;6.772;2023-07-09T15:12:28;21.70;99.90
5508;DHT22;2776;51.046;6.772;2023-07-09T15:15:06;21.70;99.90
5508;DHT22;2776;51.046;6.772;2023-07-09T15:17:54;21.70;99.90
5508;DHT22;2776;51.046;6.772;2023-07-09T15:20:38;21.90;99.90
5508;DHT22;2776;51.046;6.772;2023-07-09T15:23:35;22.00;99.90
5508;DHT22;2776;51.046;6.772;2023-07-09T15:26:14;22.10;99.90
5508;DHT22;2776;51.046;6.772;2023-07-09T15:28:51;22.30;99.90
5508;DHT22;2776;51.046;6.772;2023-07-09T15:31:27;22.40;99.90
5508;DHT22;2776;51.046;6.772;2023-07-09T15:34:02;22.70;99.90
5508;DHT22;2776;51.046;6.772;2023-07-09T15:36:39;22.90;99.90
5508;DHT22;2776;51.046;6.772;2023-07-09T15:39:35;23.20;99.90
5508;DHT22;2776;51.046;6.772;2023-07-09T15:42:18;23.40;99.90
5508;DHT22;2776;51.046;6.772;2023-07-09T15:44:48;23.30;99.90
5508;DHT22;2776;51.046;6.772;2023-07-09T15:47:36;23.10;99.90
5508;DHT22;2776;51.046;6.772;2023-07-09T15:50:27;23.20;99.90
5508;DHT22;2776;51.046;6.772;2023-07-09T15:53:13;23.30;99.90
5508;DHT22;2776;51.046;6.772;2023-07-09T15:55:43;23.30;99.90
5508;DHT22;2776;51.046;6.772;2023-07-09T15:58:21;23.40;99.90
5508;DHT22;2776;51.046;6.772;2023-07-09T16:01:02;23.50;99.90
5508;DHT22;2776;51.046;6.772;2023-07-09T16:03:31;23.60;99.90
5508;DHT22;2776;51.046;6.772;2023-07-09T16:06:03;23.80;99.90
5508;DHT22;2776;51.046;6.772;2023-07-09T16:08:37;24.00;99.90
5508;DHT22;2776;51.046;6.772;2023-07-09T16:11:20;24.30;99.90
5508;DHT22;2776;51.046;6.772;2023-07-09T16:13:55;24.50;99.90
5508;DHT22;2776;51.046;6.772;2023-07-09T16:16:24;24.60;99.90
5508;DHT22;2776;51.046;6.772;2023-07-09T16:18:53;24.60;99.90
5508;DHT22;2776;51.046;6.772;2023-07-09T16:21:30;24.60;99.90
5508;DHT22;2776;51.046;6.772;2023-07-09T16:24:17;24.50;99.90
5508;DHT22;2776;51.046;6.772;2023-07-09T16:26:50;24.60;99.90
5508;DHT22;2776;51.046;6.772;2023-07-09T16:29:24;24.60;99.90
5508;DHT22;2776;51.046;6.772;2023-07-09T16:31:57;24.60;99.90
5508;DHT22;2776;51.046;6.772;2023-07-09T16:34:29;24.60;99.90
5508;DHT22;2776;51.046;6.772;2023-07-09T16:37:10;24.60;99.90
5508;DHT22;2776;51.046;6.772;2023-07-09T16:39:51;24.70;99.90
5508;DHT22;2776;51.046;6.772;2023-07-09T16:42:20;24.70;99.90
5508;DHT22;2776;51.046;6.772;2023-07-09T16:44:52;24.80;99.90
5508;DHT22;2776;51.046;6.772;2023-07-09T16:47:28;24.90;99.90
5508;DHT22;2776;51.046;6.772;2023-07-09T16:50:03;25.00;99.90
5508;DHT22;2776;51.046;6.772;2023-07-09T16:52:33;25.10;99.90
5508;DHT22;2776;51.046;6.772;2023-07-09T16:55:06;25.10;99.90
5508;DHT22;2776;51.046;6.772;2023-07-09T16:57:39;25.20;99.90
5508;DHT22;2776;51.046;6.772;2023-07-09T17:00:23;25.30;99.90
5508;DHT22;2776;51.046;6.772;2023-07-09T17:03:03;25.50;99.90
5508;DHT22;2776;51.046;6.772;2023-07-09T17:05:38;25.50;99.90
5508;DHT22;2776;51.046;6.772;2023-07-09T17:08:09;25.50;99.90
5508;DHT22;2776;51.046;6.772;2023-07-09T17:10:50;25.50;99.90
5508;DHT22;2776;51.046;6.772;2023-07-09T17:13:26;25.60;99.90
5508;DHT22;2776;51.046;6.772;2023-07-09T17:15:56;25.70;99.90
5508;DHT22;2776;51.046;6.772;2023-07-09T17:18:30;25.70;99.90
5508;DHT22;2776;51.046;6.772;2023-07-09T17:21:05;25.80;99.90
5508;DHT22;2776;51.046;6.772;2023-07-09T17:23:38;25.80;99.90
5508;DHT22;2776;51.046;6.772;2023-07-09T17:26:09;26.00;99.90
5508;DHT22;2776;51.046;6.772;2023-07-09T17:28:41;26.10;99.90
5508;DHT22;2776;51.046;6.772;2023-07-09T17:31:18;26.30;99.90
5508;DHT22;2776;51.046;6.772;2023-07-09T17:33:58;26.40;99.90
5508;DHT22;2776;51.046;6.772;2023-07-09T17:36:29;26.50;99.90